createdAt,value
2022-08-07T00:02:40.797Z,2.43
2022-08-07T00:03:38.617Z,2.70
2022-08-07T00:05:19.200Z,2.20
2022-08-07T00:06:51.755Z,2.80
2022-08-07T00:08:24.303Z,2.47
2022-08-07T00:10:19.055Z,2.33
2022-08-07T00:11:55.773Z,3.00
2022-08-07T00:13:31.497Z,2.10
2022-08-07T00:15:05.834Z,2.50
2022-08-07T00:16:37.539Z,2.40
2022-08-07T00:18:20.256Z,2.10
2022-08-07T00:20:00.109Z,2.20
2022-08-07T00:21:56.887Z,2.60
2022-08-07T00:23:28.427Z,2.57
2022-08-07T00:25:03.671Z,2.50
2022-08-07T00:26:58.816Z,2.80
2022-08-07T00:28:33.658Z,2.43
2022-08-07T00:30:06.870Z,2.87
2022-08-07T00:31:59.623Z,2.10
2022-08-07T00:33:32.773Z,2.17
2022-08-07T00:35:05.126Z,2.50
2022-08-07T00:36:43.307Z,2.33
2022-08-07T00:38:15.187Z,2.93
2022-08-07T00:39:54.259Z,2.70
2022-08-07T00:41:31.386Z,2.77
2022-08-07T00:43:59.148Z,2.90
2022-08-07T00:45:06.797Z,2.57
2022-08-07T00:46:38.875Z,2.50
2022-08-07T00:48:12.234Z,2.57
2022-08-07T00:50:21.131Z,2.70
2022-08-07T00:51:57.753Z,2.80
2022-08-07T00:53:39.036Z,2.60
2022-08-07T00:55:25.321Z,2.37
2022-08-07T00:57:13.290Z,2.57
2022-08-07T00:58:47.359Z,2.80
2022-08-07T01:00:21.741Z,3.00
2022-08-07T01:01:54.089Z,2.93
2022-08-07T01:03:56.509Z,2.70
2022-08-07T01:05:24.539Z,2.60
2022-08-07T01:06:56.604Z,2.90
2022-08-07T01:08:28.356Z,2.60
2022-08-07T01:10:04.947Z,2.67
2022-08-07T01:12:09.388Z,2.70
2022-08-07T01:13:35.205Z,2.80
2022-08-07T01:15:11.828Z,2.60
2022-08-07T01:16:49.151Z,2.93
2022-08-07T01:18:22.795Z,3.10
2022-08-07T01:20:10.445Z,3.00
2022-08-07T01:21:53.200Z,3.27
2022-08-07T01:23:36.923Z,3.20
2022-08-07T01:25:54.488Z,3.03
2022-08-07T01:27:06.431Z,2.87
2022-08-07T01:28:53.680Z,3.30
2022-08-07T01:30:30.309Z,3.20
2022-08-07T01:32:05.623Z,3.60
2022-08-07T01:33:55.478Z,3.20
2022-08-07T01:35:52.651Z,3.30
2022-08-07T01:37:23.338Z,3.20
2022-08-07T01:38:58.662Z,3.30
2022-08-07T01:40:30.709Z,3.30
2022-08-07T01:42:37.219Z,3.50
2022-08-07T01:43:58.732Z,3.30
2022-08-07T01:45:37.133Z,3.90
2022-08-07T01:48:19.710Z,3.30
2022-08-07T01:49:12.063Z,4.07
2022-08-07T01:50:58.934Z,3.53
2022-08-07T01:52:33.567Z,3.80
2022-08-07T01:54:13.043Z,3.60
2022-08-07T01:56:13.051Z,3.90
2022-08-07T01:58:05.747Z,3.43
2022-08-07T02:00:01.341Z,3.93
2022-08-07T02:01:59.746Z,3.40
2022-08-07T02:03:32.155Z,3.70
2022-08-07T02:05:43.271Z,3.43
2022-08-07T02:07:23.337Z,3.70
2022-08-07T02:09:11.815Z,3.77
2022-08-07T02:11:05.425Z,3.83
2022-08-07T02:12:41.198Z,3.70
2022-08-07T02:14:35.870Z,4.27
2022-08-07T02:16:19.631Z,3.97
2022-08-07T02:17:54.802Z,3.97
2022-08-07T02:20:07.470Z,3.60
2022-08-07T02:21:21.856Z,3.80
2022-08-07T02:22:57.609Z,3.50
2022-08-07T02:24:32.750Z,3.90
2022-08-07T02:26:30.698Z,4.00
2022-08-07T02:28:02.687Z,3.67
2022-08-07T02:29:48.554Z,4.20
2022-08-07T02:31:30.976Z,3.80
2022-08-07T02:33:09.447Z,4.07
2022-08-07T02:34:48.940Z,3.70
2022-08-07T02:36:28.520Z,3.97
2022-08-07T02:38:05.120Z,3.97
2022-08-07T02:40:02.193Z,4.00
2022-08-07T02:41:37.415Z,4.00
2022-08-07T02:43:15.293Z,3.97
2022-08-07T02:44:51.893Z,3.90
2022-08-07T02:46:31.151Z,3.60
2022-08-07T02:48:03.704Z,4.40
2022-08-07T02:49:58.285Z,3.63
2022-08-07T02:51:42.717Z,4.13
2022-08-07T02:53:38.442Z,4.10
2022-08-07T02:55:28.776Z,3.80
2022-08-07T02:57:15.747Z,3.77
2022-08-07T02:58:48.600Z,4.17
2022-08-07T03:00:23.026Z,3.77
2022-08-07T03:01:56.159Z,3.80
2022-08-07T03:03:50.038Z,3.53
2022-08-07T03:05:29.141Z,4.30
2022-08-07T03:07:10.604Z,4.00
2022-08-07T03:08:46.198Z,4.20
2022-08-07T03:10:18.517Z,4.47
2022-08-07T03:12:02.829Z,4.17
2022-08-07T03:13:39.255Z,4.23
2022-08-07T03:15:48.001Z,3.90
2022-08-07T03:17:15.960Z,4.00
2022-08-07T03:18:49.248Z,4.30
2022-08-07T03:20:22.752Z,4.40
2022-08-07T03:21:55.988Z,4.17
2022-08-07T03:23:33.781Z,4.43
2022-08-07T03:25:23.664Z,4.23
2022-08-07T03:27:03.135Z,4.20
2022-08-07T03:28:46.505Z,3.70
2022-08-07T03:30:20.424Z,4.17
2022-08-07T03:31:57.264Z,4.23
2022-08-07T03:33:32.195Z,3.93
2022-08-07T03:35:18.728Z,4.07
2022-08-07T03:37:01.725Z,4.20
2022-08-07T03:38:50.973Z,4.30
2022-08-07T03:40:27.403Z,4.30
2022-08-07T03:42:05.670Z,4.40
2022-08-07T03:43:39.375Z,4.30
2022-08-07T03:45:29.838Z,3.93
2022-08-07T03:47:13.165Z,4.20
2022-08-07T03:49:02.584Z,3.73
2022-08-07T03:50:39.638Z,4.33
2022-08-07T03:52:22.551Z,4.97
2022-08-07T03:54:33.798Z,4.50
2022-08-07T03:55:57.743Z,3.90
2022-08-07T03:58:34.773Z,4.80
2022-08-07T03:59:33.591Z,4.20
2022-08-07T04:01:07.366Z,4.63
2022-08-07T04:02:42.949Z,4.20
2022-08-07T04:04:26.083Z,4.30
2022-08-07T04:06:02.851Z,4.77
2022-08-07T04:07:36.285Z,4.70
2022-08-07T04:09:16.784Z,4.40
2022-08-07T04:10:54.304Z,4.27
2022-08-07T04:12:47.268Z,4.83
2022-08-07T04:14:37.616Z,4.50
2022-08-07T04:16:11.108Z,5.03
2022-08-07T04:18:31.784Z,4.73
2022-08-07T04:19:52.139Z,4.97
2022-08-07T04:21:25.360Z,4.83
2022-08-07T04:23:06.282Z,4.80
2022-08-07T04:24:42.427Z,4.83
2022-08-07T04:26:21.640Z,4.47
2022-08-07T04:28:00.369Z,4.97
2022-08-07T04:29:48.848Z,4.40
2022-08-07T04:31:38.787Z,4.37
2022-08-07T04:33:18.775Z,4.57
2022-08-07T04:34:55.105Z,4.67
2022-08-07T04:36:26.941Z,4.60
2022-08-07T04:38:07.194Z,4.97
2022-08-07T04:39:41.368Z,4.30
2022-08-07T04:41:20.068Z,4.93
2022-08-07T04:43:01.577Z,4.70
2022-08-07T04:44:36.096Z,5.13
2022-08-07T04:46:39.994Z,5.60
2022-08-07T04:48:40.425Z,5.17
2022-08-07T04:50:52.156Z,4.70
2022-08-07T04:52:32.365Z,5.23
2022-08-07T04:54:16.635Z,4.93
2022-08-07T04:58:12.384Z,5.50
2022-08-07T04:58:16.379Z,5.20
2022-08-07T05:00:09.665Z,5.43
2022-08-07T05:01:57.214Z,4.90
2022-08-07T05:04:06.626Z,4.40
2022-08-07T05:05:51.718Z,5.10
2022-08-07T05:07:51.814Z,6.73
2022-08-07T05:09:45.909Z,4.90
2022-08-07T05:11:57.348Z,4.53
2022-08-07T05:14:55.125Z,4.93
2022-08-07T05:15:31.015Z,5.07
2022-08-07T05:17:11.953Z,5.33
2022-08-07T05:18:55.900Z,5.63
2022-08-07T05:20:34.888Z,5.70
2022-08-07T05:22:10.010Z,5.30
2022-08-07T05:23:57.139Z,5.00
2022-08-07T05:25:54.631Z,5.20
2022-08-07T05:28:03.183Z,4.77
2022-08-07T05:29:17.838Z,5.40
2022-08-07T05:30:55.453Z,5.37
2022-08-07T05:32:29.690Z,5.40
2022-08-07T05:34:05.784Z,5.63
2022-08-07T05:35:45.490Z,5.60
2022-08-07T05:37:25.337Z,4.50
2022-08-07T05:40:05.902Z,5.33
2022-08-07T05:41:05.459Z,4.97
2022-08-07T05:42:55.893Z,5.13
2022-08-07T05:44:30.593Z,5.97
2022-08-07T05:46:05.757Z,5.63
2022-08-07T05:48:01.106Z,4.83
2022-08-07T05:49:41.033Z,5.60
2022-08-07T05:51:15.597Z,5.23
2022-08-07T05:52:47.974Z,5.10
2022-08-07T05:54:44.627Z,5.63
2022-08-07T05:56:15.146Z,5.43
2022-08-07T05:57:53.203Z,5.70
2022-08-07T05:59:28.076Z,5.20
2022-08-07T06:01:11.370Z,5.63
2022-08-07T06:02:51.650Z,5.73
2022-08-07T06:04:26.276Z,5.43
2022-08-07T06:06:02.162Z,5.67
2022-08-07T06:08:09.275Z,5.77
2022-08-07T06:10:04.244Z,5.67
2022-08-07T06:11:20.996Z,5.80
2022-08-07T06:12:55.121Z,6.20
2022-08-07T06:14:28.660Z,5.40
2022-08-07T06:16:07.727Z,6.50
2022-08-07T06:17:53.880Z,5.47
2022-08-07T06:19:52.087Z,5.60
2022-08-07T06:22:15.684Z,5.43
2022-08-07T06:23:46.629Z,6.40
2022-08-07T06:25:10.816Z,5.53
2022-08-07T06:26:43.627Z,5.50
2022-08-07T06:28:17.131Z,5.90
2022-08-07T06:30:00.846Z,4.67
2022-08-07T06:31:47.030Z,5.17
2022-08-07T06:33:24.188Z,4.70
2022-08-07T06:34:55.863Z,4.93
2022-08-07T06:36:35.477Z,4.87
2022-08-07T06:38:19.219Z,4.70
2022-08-07T06:40:17.714Z,4.43
2022-08-07T06:42:06.124Z,5.10
2022-08-07T06:44:12.054Z,4.70
2022-08-07T06:45:44.784Z,5.90
2022-08-07T06:47:17.248Z,5.13
2022-08-07T06:48:49.560Z,4.87
2022-08-07T06:50:25.366Z,5.00
2022-08-07T06:52:02.854Z,4.30
2022-08-07T06:54:11.582Z,4.83
2022-08-07T06:55:53.933Z,5.20
2022-08-07T06:57:43.504Z,5.67
2022-08-07T07:00:13.373Z,4.77
2022-08-07T07:01:23.603Z,5.47
2022-08-07T07:02:57.664Z,5.20
2022-08-07T07:04:34.076Z,5.70
2022-08-07T07:06:11.040Z,5.23
2022-08-07T07:07:58.282Z,3.97
2022-08-07T07:09:32.174Z,4.50
2022-08-07T07:11:14.103Z,5.13
2022-08-07T07:13:14.368Z,4.70
2022-08-07T07:15:23.842Z,4.80
2022-08-07T07:17:03.063Z,5.07
2022-08-07T07:18:48.326Z,4.60
2022-08-07T07:20:34.464Z,4.40
2022-08-07T07:22:34.048Z,4.50
2022-08-07T07:24:06.640Z,4.47
2022-08-07T07:26:31.623Z,5.20
2022-08-07T07:27:55.765Z,4.50
2022-08-07T07:30:08.738Z,4.83
2022-08-07T07:31:40.030Z,4.87
2022-08-07T07:33:18.157Z,5.10
2022-08-07T07:34:53.888Z,4.90
2022-08-07T07:36:32.362Z,6.00
2022-08-07T07:38:07.433Z,5.17
2022-08-07T07:39:51.976Z,5.30
2022-08-07T07:41:30.873Z,4.77
2022-08-07T07:43:27.723Z,4.90
2022-08-07T07:45:18.255Z,5.07
2022-08-07T07:47:12.126Z,5.30
2022-08-07T07:48:49.007Z,4.83
2022-08-07T07:50:38.650Z,4.80
2022-08-07T07:52:12.898Z,4.17
2022-08-07T07:53:51.450Z,4.87
2022-08-07T07:55:26.216Z,4.60
2022-08-07T07:57:12.104Z,5.40
2022-08-07T07:58:45.346Z,4.40
2022-08-07T08:00:29.814Z,4.40
2022-08-07T08:02:10.836Z,4.10
2022-08-07T08:04:10.874Z,3.63
2022-08-07T08:05:51.096Z,3.83
2022-08-07T08:07:35.700Z,3.97
2022-08-07T08:09:16.394Z,3.67
2022-08-07T08:10:48.251Z,3.27
2022-08-07T08:12:43.184Z,3.17
2022-08-07T08:14:12.982Z,3.00
2022-08-07T08:15:57.855Z,3.00
2022-08-07T08:17:57.651Z,3.20
2022-08-07T08:20:17.596Z,3.03
2022-08-07T08:22:00.755Z,2.40
2022-08-07T08:23:53.226Z,2.50
2022-08-07T08:25:49.259Z,2.40
2022-08-07T08:27:24.844Z,2.90
2022-08-07T08:29:10.377Z,2.20
2022-08-07T08:30:50.874Z,2.00
2022-08-07T08:32:38.320Z,2.20
2022-08-07T08:34:24.882Z,1.90
2022-08-07T08:36:00.275Z,1.93
2022-08-07T08:38:01.445Z,1.73
2022-08-07T08:39:39.587Z,1.70
2022-08-07T08:41:57.542Z,1.87
2022-08-07T08:43:41.730Z,1.80
2022-08-07T08:45:42.074Z,1.80
2022-08-07T08:47:54.827Z,2.07
2022-08-07T08:50:05.136Z,1.77
2022-08-07T08:52:19.064Z,1.60
2022-08-07T08:54:11.526Z,1.57
2022-08-07T08:56:01.214Z,1.30
2022-08-07T08:57:44.247Z,1.30
2022-08-07T08:59:41.859Z,1.30
2022-08-07T09:01:20.336Z,1.10
2022-08-07T09:02:57.883Z,1.27
2022-08-07T09:04:52.007Z,1.30
2022-08-07T09:06:23.921Z,1.00
2022-08-07T09:08:36.491Z,1.10
2022-08-07T09:10:18.055Z,1.23
2022-08-07T09:12:30.174Z,1.10
2022-08-07T09:14:20.395Z,1.30
2022-08-07T09:16:21.956Z,1.20
2022-08-07T09:18:25.370Z,1.20
2022-08-07T09:20:34.611Z,1.40
2022-08-07T09:24:28.330Z,1.20
2022-08-07T09:24:58.888Z,1.30
2022-08-07T09:26:51.180Z,1.30
2022-08-07T09:30:02.042Z,1.03
2022-08-07T09:30:37.203Z,1.33
2022-08-07T09:32:18.619Z,1.83
2022-08-07T09:34:08.642Z,1.30
2022-08-07T09:36:04.125Z,1.33
2022-08-07T09:37:48.471Z,1.53
2022-08-07T09:39:54.354Z,1.50
2022-08-07T09:41:28.131Z,1.43
2022-08-07T09:43:21.026Z,1.67
2022-08-07T09:47:24.647Z,1.70
2022-08-07T09:48:03.706Z,1.33
2022-08-07T09:50:00.801Z,1.70
2022-08-07T09:52:16.826Z,1.40
2022-08-07T09:54:02.800Z,1.30
2022-08-07T09:56:09.088Z,1.53
2022-08-07T09:58:31.961Z,1.23
2022-08-07T10:00:14.549Z,1.70
2022-08-07T10:02:00.274Z,1.53
2022-08-07T10:04:05.371Z,1.50
2022-08-07T10:06:17.499Z,1.67
2022-08-07T10:08:11.697Z,1.70
2022-08-07T10:10:06.955Z,1.83
2022-08-07T10:12:28.462Z,1.73
2022-08-07T10:14:23.010Z,1.50
2022-08-07T10:16:40.594Z,1.57
2022-08-07T10:18:32.638Z,1.97
2022-08-07T10:20:44.415Z,1.80
2022-08-07T10:22:45.212Z,1.70
2022-08-07T10:24:23.391Z,1.20
2022-08-07T10:26:24.657Z,1.50
2022-08-07T10:28:15.385Z,1.40
2022-08-07T10:29:58.459Z,1.43
2022-08-07T10:31:51.835Z,1.90
2022-08-07T10:34:14.372Z,1.50
2022-08-07T10:36:05.486Z,1.50
2022-08-07T10:38:35.800Z,1.60
2022-08-07T10:40:20.986Z,1.30
2022-08-07T10:42:20.987Z,1.50
2022-08-07T10:44:12.155Z,1.60
2022-08-07T10:45:58.407Z,1.40
2022-08-07T10:48:03.518Z,1.23
2022-08-07T10:49:53.389Z,1.70
2022-08-07T10:52:18.663Z,1.43
2022-08-07T10:54:06.274Z,1.27
2022-08-07T10:56:02.378Z,1.50
2022-08-07T10:58:24.996Z,2.00
2022-08-07T11:00:39.614Z,1.27
2022-08-07T11:02:49.044Z,1.40
2022-08-07T11:04:43.670Z,1.20
2022-08-07T11:06:41.817Z,1.30
2022-08-07T11:08:48.515Z,1.30
2022-08-07T11:10:31.697Z,1.43
2022-08-07T11:12:18.905Z,1.37
2022-08-07T11:14:45.907Z,1.40
2022-08-07T11:16:41.126Z,1.53
2022-08-07T11:18:21.834Z,1.30
2022-08-07T11:20:10.983Z,1.10
2022-08-07T11:21:54.315Z,1.40
2022-08-07T11:23:45.491Z,1.50
2022-08-07T11:25:49.810Z,1.40
2022-08-07T11:28:03.187Z,1.20
2022-08-07T11:29:47.278Z,1.37
2022-08-07T11:31:48.965Z,1.40
2022-08-07T11:33:55.397Z,1.30
2022-08-07T11:35:59.081Z,1.40
2022-08-07T11:38:28.278Z,1.23
2022-08-07T11:40:10.690Z,1.37
2022-08-07T11:42:30.158Z,1.20
2022-08-07T11:44:18.439Z,1.43
2022-08-07T11:46:14.318Z,1.10
2022-08-07T11:48:13.769Z,1.40
2022-08-07T11:50:30.666Z,1.33
2022-08-07T11:52:29.259Z,1.20
2022-08-07T11:54:29.610Z,1.30
2022-08-07T11:56:28.571Z,1.77
2022-08-07T11:58:33.442Z,1.57
2022-08-07T12:00:38.130Z,1.40
2022-08-07T12:02:49.782Z,1.63
2022-08-07T12:04:42.988Z,1.37
2022-08-07T12:06:40.533Z,1.43
2022-08-07T12:08:43.762Z,1.70
2022-08-07T12:10:41.889Z,1.40
2022-08-07T12:12:18.801Z,1.30
2022-08-07T12:14:01.402Z,1.57
2022-08-07T12:16:05.942Z,1.20
2022-08-07T12:17:58.443Z,1.20
2022-08-07T12:20:02.731Z,1.30
2022-08-07T12:22:36.144Z,1.60
2022-08-07T12:24:06.771Z,1.50
2022-08-07T12:26:02.777Z,1.00
2022-08-07T12:28:09.600Z,1.80
2022-08-07T12:30:00.725Z,1.60
2022-08-07T12:32:02.160Z,1.50
2022-08-07T12:34:01.510Z,1.23
2022-08-07T12:35:36.305Z,1.10
2022-08-07T12:37:16.454Z,1.20
2022-08-07T12:38:49.750Z,1.40
2022-08-07T12:40:50.223Z,1.30
2022-08-07T12:42:27.807Z,1.37
2022-08-07T12:44:05.608Z,1.50
2022-08-07T12:46:26.026Z,1.30
2022-08-07T12:48:27.904Z,1.13
2022-08-07T12:50:48.679Z,1.20
2022-08-07T12:52:52.370Z,1.20
2022-08-07T12:54:38.376Z,1.30
2022-08-07T12:56:23.733Z,1.10
2022-08-07T12:58:02.361Z,1.30
2022-08-07T12:59:53.796Z,1.70
2022-08-07T13:01:27.989Z,1.40
2022-08-07T13:03:54.826Z,1.17
2022-08-07T13:06:03.725Z,1.27
2022-08-07T13:08:12.914Z,1.20
2022-08-07T13:10:38.192Z,1.30
2022-08-07T13:12:15.205Z,1.50
2022-08-07T13:14:07.468Z,1.30
2022-08-07T13:16:00.948Z,1.10
2022-08-07T13:17:46.649Z,1.30
2022-08-07T13:19:50.225Z,1.17
2022-08-07T13:21:50.098Z,1.30
2022-08-07T13:24:01.872Z,1.30
2022-08-07T13:26:00.819Z,1.20
2022-08-07T13:28:11.481Z,1.40
2022-08-07T13:30:04.028Z,1.20
2022-08-07T13:32:31.900Z,1.03
2022-08-07T13:34:35.543Z,1.20
2022-08-07T13:36:17.377Z,1.20
2022-08-07T13:38:08.878Z,1.27
2022-08-07T13:40:35.945Z,1.10
2022-08-07T13:41:54.729Z,1.63
2022-08-07T13:43:34.424Z,1.10
2022-08-07T13:45:21.238Z,1.50
2022-08-07T13:47:02.862Z,1.20
2022-08-07T13:48:39.014Z,1.17
2022-08-07T13:50:32.719Z,1.20
2022-08-07T13:52:33.592Z,1.20
2022-08-07T13:54:16.467Z,1.60
2022-08-07T13:56:01.119Z,1.37
2022-08-07T13:57:37.769Z,1.20
2022-08-07T13:59:27.090Z,1.57
2022-08-07T14:01:09.182Z,1.40
2022-08-07T14:02:51.105Z,1.30
2022-08-07T14:04:29.669Z,1.50
2022-08-07T14:06:09.287Z,1.30
2022-08-07T14:08:00.014Z,1.30
2022-08-07T14:10:00.927Z,1.43
2022-08-07T14:11:28.950Z,1.20
2022-08-07T14:13:33.574Z,1.60
2022-08-07T14:15:08.679Z,1.50
2022-08-07T14:16:45.024Z,1.40
2022-08-07T14:18:30.471Z,1.37
2022-08-07T14:20:40.550Z,1.20
2022-08-07T14:22:34.725Z,1.20
2022-08-07T14:24:12.431Z,1.30
2022-08-07T14:25:48.086Z,1.30
2022-08-07T14:28:20.928Z,1.87
2022-08-07T14:30:05.723Z,1.30
2022-08-07T14:31:25.971Z,1.30
2022-08-07T14:33:17.287Z,1.30
2022-08-07T14:34:55.419Z,1.30
2022-08-07T14:36:28.058Z,1.30
2022-08-07T14:40:17.847Z,1.40
2022-08-07T14:42:20.664Z,1.30
2022-08-07T14:43:58.470Z,1.33
2022-08-07T14:45:49.488Z,1.30
2022-08-07T14:47:23.594Z,1.60
2022-08-07T14:48:58.580Z,1.57
2022-08-07T14:50:37.533Z,1.30
2022-08-07T14:52:10.832Z,1.30
2022-08-07T15:01:25.413Z,1.30
2022-08-07T15:03:17.492Z,1.40
2022-08-07T15:04:57.483Z,1.33
2022-08-07T15:06:37.799Z,1.33
2022-08-07T15:08:12.614Z,1.37
2022-08-07T15:12:01.223Z,1.50
2022-08-07T15:13:37.792Z,1.10
2022-08-07T15:15:21.246Z,1.70
2022-08-07T15:17:00.601Z,1.60
2022-08-07T15:18:45.276Z,1.33
2022-08-07T15:20:30.765Z,1.30
2022-08-07T15:22:23.187Z,1.40
2022-08-07T15:25:12.691Z,1.30
2022-08-07T15:25:58.315Z,1.20
2022-08-07T15:27:34.121Z,1.40
2022-08-07T15:30:10.162Z,1.30
2022-08-07T15:31:05.818Z,2.10
2022-08-07T15:33:01.349Z,1.20
2022-08-07T15:34:50.388Z,1.30
2022-08-07T15:37:04.632Z,1.70
2022-08-07T15:38:51.878Z,1.50
2022-08-07T15:42:45.627Z,1.27
2022-08-07T15:44:23.821Z,1.20
2022-08-07T15:46:31.598Z,1.27
2022-08-07T15:48:02.060Z,1.30
2022-08-07T15:53:51.543Z,1.30
2022-08-07T15:55:20.866Z,1.20
2022-08-07T15:56:59.534Z,1.40
2022-08-07T15:58:52.509Z,1.23
2022-08-07T16:00:34.718Z,1.23
2022-08-07T16:02:15.177Z,1.50
2022-08-07T16:03:58.258Z,1.43
2022-08-07T16:05:31.502Z,1.57
2022-08-07T16:08:31.346Z,1.30
2022-08-07T16:09:34.926Z,1.40
2022-08-07T16:11:39.895Z,1.30
2022-08-07T16:13:57.874Z,1.33
2022-08-07T16:15:55.228Z,1.50
2022-08-07T16:18:02.087Z,1.40
2022-08-07T16:19:59.619Z,1.40
2022-08-07T16:21:44.037Z,1.30
2022-08-07T16:23:58.850Z,1.50
2022-08-07T16:26:04.934Z,1.30
2022-08-07T16:27:57.287Z,1.40
2022-08-07T16:30:29.717Z,1.60
2022-08-07T16:32:07.251Z,1.30
2022-08-07T16:34:03.798Z,1.60
2022-08-07T16:35:51.607Z,1.77
2022-08-07T16:38:03.865Z,1.33
2022-08-07T16:40:28.869Z,1.30
2022-08-07T16:42:21.599Z,1.60
2022-08-07T16:44:05.730Z,1.40
2022-08-07T16:46:47.348Z,1.70
2022-08-07T16:48:28.460Z,1.40
2022-08-07T16:50:38.852Z,1.37
2022-08-07T16:52:55.869Z,1.67
2022-08-07T16:55:19.197Z,1.73
2022-08-07T16:56:55.832Z,1.50
2022-08-07T16:59:14.366Z,1.63
2022-08-07T17:01:08.065Z,1.37
2022-08-07T17:03:09.227Z,1.40
2022-08-07T17:04:58.477Z,1.40
2022-08-07T17:07:02.894Z,1.40
2022-08-07T17:09:14.382Z,1.33
2022-08-07T17:10:54.574Z,2.17
2022-08-07T17:12:48.661Z,1.73
2022-08-07T17:14:53.557Z,1.53
2022-08-07T17:16:39.153Z,1.70
2022-08-07T17:18:28.296Z,1.50
2022-08-07T17:20:14.417Z,1.57
2022-08-07T17:21:59.123Z,1.37
2022-08-07T17:23:50.464Z,1.40
2022-08-07T17:25:47.618Z,1.30
2022-08-07T17:27:56.106Z,1.50
2022-08-07T17:30:15.316Z,1.50
2022-08-07T17:32:02.532Z,1.60
2022-08-07T17:34:08.583Z,1.80
2022-08-07T17:35:50.717Z,1.40
2022-08-07T17:38:06.686Z,1.60
2022-08-07T17:39:53.015Z,1.77
2022-08-07T17:42:01.596Z,1.90
2022-08-07T17:44:01.707Z,1.73
2022-08-07T17:45:42.234Z,1.90
2022-08-07T17:47:38.369Z,1.70
2022-08-07T17:49:45.253Z,1.47
2022-08-07T17:52:00.110Z,1.60
2022-08-07T17:54:02.428Z,1.53
2022-08-07T17:55:55.661Z,1.80
2022-08-07T17:58:01.609Z,1.80
2022-08-07T17:59:52.268Z,1.80
2022-08-07T18:01:39.388Z,2.00
2022-08-07T18:03:25.561Z,2.07
2022-08-07T18:06:01.416Z,3.30
2022-08-07T18:07:36.581Z,2.40
2022-08-07T18:09:16.103Z,3.00
2022-08-07T18:12:07.518Z,2.27
2022-08-07T18:13:10.739Z,2.40
2022-08-07T18:15:08.666Z,2.00
2022-08-07T18:16:57.813Z,1.80
2022-08-07T18:21:10.624Z,1.90
2022-08-07T18:21:10.963Z,1.60
2022-08-07T18:23:04.552Z,1.90
2022-08-07T18:24:51.533Z,2.20
2022-08-07T18:26:36.453Z,1.73
2022-08-07T18:28:35.398Z,2.40
2022-08-07T18:30:31.645Z,1.80
2022-08-07T18:32:38.233Z,1.90
2022-08-07T18:34:37.499Z,1.90
2022-08-07T18:36:43.074Z,2.00
2022-08-07T18:38:56.828Z,1.87
2022-08-07T18:41:03.793Z,1.90
2022-08-07T18:43:09.017Z,1.87
2022-08-07T18:45:40.370Z,1.90
2022-08-07T18:46:59.617Z,1.80
2022-08-07T18:50:19.570Z,1.77
2022-08-07T18:50:47.129Z,1.83
2022-08-07T18:52:41.193Z,1.80
2022-08-07T18:54:30.692Z,1.73
2022-08-07T18:56:12.611Z,1.97
2022-08-07T18:58:13.021Z,1.50
2022-08-07T19:00:34.496Z,1.70
2022-08-07T19:02:36.592Z,2.00
2022-08-07T19:04:25.035Z,1.70
2022-08-07T19:06:17.313Z,1.77
2022-08-07T19:08:06.952Z,1.70
2022-08-07T19:09:55.823Z,1.70
2022-08-07T19:12:04.601Z,1.80
2022-08-07T19:13:40.182Z,1.73
2022-08-07T19:16:02.890Z,1.93
2022-08-07T19:17:52.468Z,2.08
2022-08-07T19:19:37.274Z,1.60
2022-08-07T19:21:44.948Z,1.80
2022-08-07T19:23:57.215Z,1.80
2022-08-07T19:26:22.607Z,1.87
2022-08-07T19:28:56.698Z,1.90
2022-08-07T19:31:05.680Z,2.13
2022-08-07T19:31:57.775Z,1.90
2022-08-07T19:33:34.879Z,2.10
2022-08-07T19:35:22.643Z,2.20
2022-08-07T19:37:16.831Z,2.10
2022-08-07T19:38:54.220Z,2.77
2022-08-07T19:40:31.810Z,1.90
2022-08-07T19:42:22.536Z,2.10
2022-08-07T19:44:00.446Z,1.90
2022-08-07T19:46:07.576Z,2.17
2022-08-07T19:47:36.774Z,2.10
2022-08-07T19:49:16.127Z,1.90
2022-08-07T19:50:53.212Z,2.20
2022-08-07T19:52:30.639Z,2.00
2022-08-07T19:54:31.281Z,2.00
2022-08-07T19:55:58.675Z,1.83
2022-08-07T19:58:02.228Z,2.20
2022-08-07T19:59:42.294Z,2.20
2022-08-07T20:01:17.687Z,2.30
2022-08-07T20:03:00.761Z,2.40
2022-08-07T20:04:42.888Z,2.57
2022-08-07T20:06:30.329Z,2.90
2022-08-07T20:08:08.370Z,2.57
2022-08-07T20:10:35.534Z,2.00
2022-08-07T20:12:22.691Z,2.43
2022-08-07T20:13:56.274Z,2.50
2022-08-07T20:15:36.884Z,2.10
2022-08-07T20:17:09.759Z,2.23
2022-08-07T20:18:44.131Z,2.67
2022-08-07T20:20:23.975Z,2.77
2022-08-07T20:21:58.351Z,2.10
2022-08-07T20:23:42.934Z,2.20
2022-08-07T20:25:19.744Z,2.27
2022-08-07T20:26:55.862Z,2.00
2022-08-07T20:28:30.694Z,2.10
2022-08-07T20:30:07.630Z,2.33
2022-08-07T20:31:47.451Z,2.30
2022-08-07T20:33:36.356Z,2.60
2022-08-07T20:35:20.534Z,2.30
2022-08-07T20:37:00.624Z,2.90
2022-08-07T20:38:53.689Z,2.43
2022-08-07T20:40:34.570Z,2.23
2022-08-07T20:42:12.626Z,2.37
2022-08-07T20:43:47.790Z,2.33
2022-08-07T20:45:33.622Z,2.40
2022-08-07T20:47:25.178Z,2.63
2022-08-07T20:49:57.799Z,2.30
2022-08-07T20:51:04.007Z,2.20
2022-08-07T20:52:51.989Z,2.03
2022-08-07T20:54:29.717Z,2.37
2022-08-07T20:56:06.026Z,2.40
2022-08-07T20:57:47.596Z,2.30
2022-08-07T21:00:06.902Z,2.40
2022-08-07T21:01:36.559Z,2.00
2022-08-07T21:03:26.185Z,2.50
2022-08-07T21:05:00.749Z,2.80
2022-08-07T21:06:37.594Z,2.17
2022-08-07T21:08:36.968Z,2.20
2022-08-07T21:10:11.787Z,2.40
2022-08-07T21:11:50.029Z,2.20
2022-08-07T21:13:24.640Z,2.23
2022-08-07T21:15:18.537Z,2.10
2022-08-07T21:18:00.590Z,2.40
2022-08-07T21:18:53.090Z,2.10
2022-08-07T21:20:33.263Z,2.37
2022-08-07T21:22:06.890Z,2.30
2022-08-07T21:24:20.086Z,2.20
2022-08-07T21:26:01.341Z,3.17
2022-08-07T21:28:02.603Z,2.53
2022-08-07T21:30:01.111Z,2.60
2022-08-07T21:32:41.821Z,2.57
2022-08-07T21:33:48.019Z,2.30
2022-08-07T21:35:34.888Z,2.00
2022-08-07T21:37:57.350Z,2.70
2022-08-07T21:39:48.130Z,2.80
2022-08-07T21:41:59.924Z,2.37
2022-08-07T21:43:56.259Z,1.90
2022-08-07T21:46:10.687Z,2.63
2022-08-07T21:48:27.740Z,2.77
2022-08-07T21:50:14.483Z,2.23
2022-08-07T21:52:09.032Z,2.00
2022-08-07T21:53:52.665Z,2.30
2022-08-07T21:55:37.315Z,2.20
2022-08-07T21:57:51.636Z,2.40
2022-08-07T22:00:05.443Z,2.03
2022-08-07T22:02:11.246Z,2.03
2022-08-07T22:03:51.579Z,2.10
2022-08-07T22:05:45.316Z,2.00
2022-08-07T22:07:31.859Z,1.90
2022-08-07T22:09:25.339Z,2.60
2022-08-07T22:11:00.370Z,2.17
2022-08-07T22:12:40.816Z,1.90
2022-08-07T22:14:15.302Z,2.00
2022-08-07T22:16:43.879Z,2.17
2022-08-07T22:18:06.366Z,1.90
2022-08-07T22:20:07.319Z,2.20
2022-08-07T22:22:05.267Z,2.27
2022-08-07T22:23:57.320Z,2.37
2022-08-07T22:25:39.445Z,2.13
2022-08-07T22:27:34.039Z,2.20
2022-08-07T22:29:48.549Z,2.20
2022-08-07T22:31:56.213Z,2.10
2022-08-07T22:33:18.304Z,2.33
2022-08-07T22:35:11.164Z,2.40
2022-08-07T22:37:18.518Z,1.90
2022-08-07T22:39:04.860Z,2.20
2022-08-07T22:40:53.276Z,2.87
2022-08-07T22:42:54.057Z,2.37
2022-08-07T22:44:24.952Z,2.30
2022-08-07T22:47:03.650Z,2.23
2022-08-07T22:49:02.378Z,2.07
2022-08-07T22:50:48.431Z,2.20
2022-08-07T22:52:37.409Z,1.80
2022-08-07T22:54:33.445Z,1.90
2022-08-07T22:56:08.555Z,2.07
2022-08-07T22:58:07.824Z,2.40
2022-08-07T23:00:00.573Z,2.20
2022-08-07T23:01:49.493Z,2.13
2022-08-07T23:03:32.361Z,2.30
2022-08-07T23:06:07.757Z,2.10
2022-08-07T23:07:48.264Z,2.23
2022-08-07T23:10:05.951Z,2.83
2022-08-07T23:11:59.066Z,2.63
2022-08-07T23:14:16.883Z,3.03
2022-08-07T23:16:44.699Z,3.00
2022-08-07T23:18:42.196Z,2.73
2022-08-07T23:20:53.366Z,3.20
2022-08-07T23:22:47.263Z,3.37
2022-08-07T23:24:45.725Z,3.03
2022-08-07T23:26:25.312Z,2.73
2022-08-07T23:28:20.310Z,2.93
2022-08-07T23:30:39.408Z,3.07
2022-08-07T23:34:22.320Z,2.80
2022-08-07T23:34:34.162Z,4.10
2022-08-07T23:36:29.046Z,3.40
2022-08-07T23:38:08.205Z,3.60
2022-08-07T23:40:11.407Z,3.47
2022-08-07T23:42:15.693Z,3.50
2022-08-07T23:44:29.805Z,3.50
2022-08-07T23:46:34.210Z,3.50
2022-08-07T23:48:31.461Z,3.30
2022-08-07T23:50:40.897Z,3.23
2022-08-07T23:53:05.276Z,3.53
2022-08-07T23:54:57.939Z,3.57
2022-08-07T23:56:53.994Z,4.00
2022-08-07T23:59:10.739Z,2.70
